Terminal Aerodrome Forecast
Issued by NWS Charleston, WV

Current Version | Previous Version | Graphics & Text | Print | Product List | Glossary On
Versions: 1 2 3 4 5 6 7 8 9 10 11 12 13 14 15 16 17 18 19 20 21 22 23 24
054
FTUS41 KRLX 220832 AAA
TAFHTS
TAF AMD
KHTS 220832Z 2209/2306 19004KT P6SM SCT150
     FM221200 23007KT P6SM SCT100
     FM221800 23010G16KT P6SM VCTS BKN050CB
     FM222200 25008KT 2SM +TSRA OVC025CB PROB30 2222/2301 27035G50KT
      1/2SM +TSRAGR
     FM230100 26006KT 4SM SHRA VCTS OVC035CB
     FM230300 26004KT P6SM VCSH OVC040=

USA.gov is the U.S. government's official web portal to all federal, state and local government web resources and services.